createdAt,value
2017-07-19T00:00:53.824Z,33.1
2017-07-19T00:01:50.879Z,33.1
2017-07-19T00:02:50.590Z,33.1
2017-07-19T00:03:54.227Z,33.1
2017-07-19T00:04:52.883Z,33.1
2017-07-19T00:05:51.011Z,33.1
2017-07-19T00:06:50.868Z,33.1
2017-07-19T00:07:51.212Z,33.1
2017-07-19T00:08:51.627Z,33.1
2017-07-19T00:09:53.163Z,33.1
2017-07-19T00:10:53.216Z,33.1
2017-07-19T00:11:53.312Z,33.1
2017-07-19T00:12:54.470Z,33.1
2017-07-19T00:13:51.687Z,33.1
2017-07-19T00:14:53.135Z,33.1
2017-07-19T00:15:53.178Z,33.1
2017-07-19T00:16:51.507Z,33.1
2017-07-19T00:17:52.217Z,33.1
2017-07-19T00:18:54.962Z,33.1
2017-07-19T00:19:51.786Z,33.1
2017-07-19T00:20:51.697Z,33.1
2017-07-19T00:21:51.524Z,33.1
2017-07-19T00:22:51.783Z,33.1
2017-07-19T00:23:54.941Z,33.1
2017-07-19T00:24:51.681Z,33.1
2017-07-19T00:25:52.156Z,33.1
2017-07-19T00:26:51.968Z,33.1
2017-07-19T00:27:55.373Z,33.1
2017-07-19T00:28:52.129Z,33.1
2017-07-19T00:29:55.540Z,33.1
2017-07-19T00:30:55.586Z,33.1
2017-07-19T00:31:52.417Z,33.1
2017-07-19T00:32:52.359Z,33.1
2017-07-19T00:33:55.787Z,33.1
2017-07-19T00:34:55.870Z,33.2
2017-07-19T00:35:52.536Z,33.2
2017-07-19T00:36:52.437Z,33.1
2017-07-19T00:37:54.841Z,33.2
2017-07-19T00:38:52.698Z,33.2
2017-07-19T00:39:54.484Z,33.2
2017-07-19T00:40:52.653Z,33.2
2017-07-19T00:41:52.665Z,33.2
2017-07-19T00:42:55.961Z,33.2
2017-07-19T00:43:54.924Z,33.2
2017-07-19T00:44:52.945Z,33.2
2017-07-19T00:45:53.021Z,33.2
2017-07-19T00:46:56.218Z,33.2
2017-07-19T00:47:55.097Z,33.2
2017-07-19T00:48:53.270Z,33.2
2017-07-19T00:49:55.544Z,33.2
2017-07-19T00:50:56.730Z,33.2
2017-07-19T00:51:56.797Z,33.2
2017-07-19T00:52:55.219Z,33.2
2017-07-19T00:53:53.605Z,33.2
2017-07-19T00:54:53.488Z,33.2
2017-07-19T00:55:53.974Z,33.2
2017-07-19T00:56:57.040Z,33.2
2017-07-19T00:57:57.093Z,33.2
2017-07-19T00:58:57.140Z,33.2
2017-07-19T00:59:53.887Z,33.2
2017-07-19T01:00:55.660Z,33.2
2017-07-19T01:01:57.350Z,33.2
2017-07-19T01:02:53.966Z,33.2
2017-07-19T01:03:53.869Z,33.2
2017-07-19T01:04:54.122Z,33.2
2017-07-19T01:05:53.983Z,33.2
2017-07-19T01:06:55.971Z,33.2
2017-07-19T01:07:57.717Z,33.2
2017-07-19T01:08:56.126Z,33.2
2017-07-19T01:09:56.173Z,33.2
2017-07-19T01:10:54.355Z,33.2
2017-07-19T01:11:54.425Z,33.2
2017-07-19T01:12:54.699Z,33.2
2017-07-19T01:13:56.443Z,33.2
2017-07-19T01:14:54.845Z,33.2
2017-07-19T01:15:54.893Z,33.2
2017-07-19T01:16:54.763Z,33.2
2017-07-19T01:17:56.910Z,33.2
2017-07-19T01:18:56.667Z,33.2
2017-07-19T01:19:55.013Z,33.2
2017-07-19T01:20:54.987Z,33.2
2017-07-19T01:21:57.178Z,33.2
2017-07-19T01:22:55.098Z,33.2
2017-07-19T01:23:55.198Z,33.2
2017-07-19T01:24:57.406Z,33.2
2017-07-19T01:25:57.425Z,33.2
2017-07-19T01:26:58.612Z,33.2
2017-07-19T01:27:55.427Z,33.2
2017-07-19T01:28:57.391Z,33.2
2017-07-19T01:29:57.692Z,33.2
2017-07-19T01:30:55.545Z,33.2
2017-07-19T01:31:56.449Z,33.2
2017-07-19T01:32:55.988Z,33.2
2017-07-19T01:33:57.277Z,33.2
2017-07-19T01:34:58.010Z,33.2
2017-07-19T01:36:00.185Z,33.2
2017-07-19T01:36:57.354Z,33.2
2017-07-19T01:37:56.111Z,33.2
2017-07-19T01:38:56.075Z,33.2
2017-07-19T01:39:56.327Z,33.2
2017-07-19T01:40:58.145Z,33.2
2017-07-19T01:41:56.222Z,33.2
2017-07-19T01:42:58.478Z,33.2
2017-07-19T01:43:58.488Z,33.3
2017-07-19T01:44:56.406Z,33.3
2017-07-19T01:45:58.487Z,33.3
2017-07-19T01:46:57.593Z,33.3
2017-07-19T01:48:00.106Z,33.3
2017-07-19T01:48:59.991Z,33.3
2017-07-19T01:49:57.158Z,33.3
2017-07-19T01:50:56.899Z,33.3
2017-07-19T01:52:00.341Z,33.3
2017-07-19T01:52:58.962Z,33.3
2017-07-19T01:53:56.818Z,33.3
2017-07-19T01:54:56.961Z,33.3
2017-07-19T01:55:57.320Z,33.2
2017-07-19T01:56:57.038Z,33.3
2017-07-19T01:57:57.253Z,33.3
2017-07-19T01:58:57.963Z,33.3
2017-07-19T01:59:57.295Z,33.3
2017-07-19T02:00:57.369Z,33.3
2017-07-19T02:01:59.548Z,33.3
2017-07-19T02:03:00.582Z,33.3
2017-07-19T02:03:57.335Z,33.3
2017-07-19T02:04:57.708Z,33.3
2017-07-19T02:05:57.538Z,33.3
2017-07-19T02:06:59.534Z,33.3
2017-07-19T02:07:58.095Z,33.3
2017-07-19T02:08:59.469Z,33.3
2017-07-19T02:09:59.809Z,33.3
2017-07-19T02:10:58.727Z,33.3
2017-07-19T02:11:59.874Z,33.3
2017-07-19T02:12:57.881Z,33.3
2017-07-19T02:13:58.053Z,33.3
2017-07-19T02:14:57.739Z,33.3
2017-07-19T02:16:01.273Z,33.3
2017-07-19T02:16:59.661Z,33.3
2017-07-19T02:17:58.025Z,33.3
2017-07-19T02:18:57.990Z,33.3
2017-07-19T02:19:58.251Z,33.3
2017-07-19T02:20:58.211Z,33.3
2017-07-19T02:21:58.249Z,33.3
2017-07-19T02:23:00.010Z,33.3
2017-07-19T02:24:01.714Z,33.3
2017-07-19T02:25:01.590Z,33.3
2017-07-19T02:25:58.486Z,33.3
2017-07-19T02:26:58.313Z,33.3
2017-07-19T02:27:58.396Z,33.3
2017-07-19T02:29:01.057Z,33.3
2017-07-19T02:30:00.601Z,33.3
2017-07-19T02:31:00.608Z,33.3
2017-07-19T02:32:00.958Z,33.3
2017-07-19T02:33:00.720Z,33.3
2017-07-19T02:34:00.806Z,33.3
2017-07-19T02:35:02.365Z,33.3
2017-07-19T02:35:58.921Z,33.3
2017-07-19T02:37:01.127Z,33.3
2017-07-19T02:38:02.603Z,33.3
2017-07-19T02:38:59.339Z,33.3
2017-07-19T02:39:59.357Z,33.3
2017-07-19T02:40:59.438Z,33.3
2017-07-19T02:41:59.497Z,33.3
2017-07-19T02:42:59.597Z,33.3
2017-07-19T02:43:59.672Z,33.3
2017-07-19T02:44:59.590Z,33.3
2017-07-19T02:46:02.978Z,33.3
2017-07-19T02:46:59.728Z,33.3
2017-07-19T02:47:59.788Z,33.3
2017-07-19T02:48:59.800Z,33.4
2017-07-19T02:50:02.792Z,33.4
2017-07-19T02:50:59.714Z,33.4
2017-07-19T02:52:03.188Z,33.4
2017-07-19T02:52:59.882Z,33.4
2017-07-19T02:53:59.924Z,33.4
2017-07-19T02:55:01.937Z,33.4
2017-07-19T02:56:00.456Z,33.4
2017-07-19T02:57:00.353Z,33.4
2017-07-19T02:58:02.384Z,33.4
2017-07-19T02:59:02.359Z,33.4
2017-07-19T03:00:02.240Z,33.4
2017-07-19T03:01:00.371Z,33.4
2017-07-19T03:02:00.910Z,33.4
2017-07-19T03:03:04.060Z,33.4
2017-07-19T03:04:00.707Z,33.4
2017-07-19T03:05:02.693Z,33.4
2017-07-19T03:06:04.218Z,33.4
2017-07-19T03:07:04.199Z,33.4
2017-07-19T03:08:01.169Z,33.4
2017-07-19T03:09:00.885Z,33.4
2017-07-19T03:10:00.970Z,33.4
2017-07-19T03:11:02.771Z,33.4
2017-07-19T03:12:02.856Z,33.4
2017-07-19T03:13:02.880Z,33.4
2017-07-19T03:14:03.412Z,33.4
2017-07-19T03:15:01.157Z,33.4
2017-07-19T03:16:01.204Z,33.4
2017-07-19T03:17:01.083Z,33.4
2017-07-19T03:18:03.035Z,33.4
2017-07-19T03:19:01.203Z,33.4
2017-07-19T03:20:05.098Z,33.4
2017-07-19T03:21:01.434Z,33.4
2017-07-19T03:22:03.233Z,33.4
2017-07-19T03:23:01.346Z,33.4
2017-07-19T03:24:01.379Z,33.4
2017-07-19T03:25:03.570Z,33.4
2017-07-19T03:26:01.772Z,33.4
2017-07-19T03:27:03.694Z,33.4
2017-07-19T03:28:03.565Z,33.4
2017-07-19T03:29:05.241Z,33.4
2017-07-19T03:30:01.977Z,33.4
2017-07-19T03:31:05.334Z,33.4
2017-07-19T03:32:02.347Z,33.4
2017-07-19T03:33:02.119Z,33.4
2017-07-19T03:34:03.905Z,33.5
2017-07-19T03:35:05.625Z,33.5
2017-07-19T03:36:05.651Z,33.4
2017-07-19T03:37:02.195Z,33.5
2017-07-19T03:38:04.383Z,33.5
2017-07-19T03:39:02.473Z,33.5
2017-07-19T03:40:02.309Z,33.5
2017-07-19T03:41:04.288Z,33.5
2017-07-19T03:42:05.948Z,33.5
2017-07-19T03:43:02.687Z,33.5
2017-07-19T03:44:06.226Z,33.5
2017-07-19T03:45:04.483Z,33.5
2017-07-19T03:46:02.634Z,33.5
2017-07-19T03:47:02.826Z,33.5
2017-07-19T03:48:02.692Z,33.5
2017-07-19T03:49:02.891Z,33.4
2017-07-19T03:50:03.284Z,33.5
2017-07-19T03:51:02.974Z,33.5
2017-07-19T03:52:05.003Z,33.5
2017-07-19T03:53:05.056Z,33.5
2017-07-19T03:54:03.012Z,33.5
2017-07-19T03:55:06.328Z,33.5
2017-07-19T03:56:03.331Z,33.5
2017-07-19T03:57:05.011Z,33.5
2017-07-19T03:58:05.301Z,33.5
2017-07-19T03:59:03.202Z,33.4
2017-07-19T04:00:03.214Z,33.4
2017-07-19T04:01:05.334Z,33.4
2017-07-19T04:02:03.591Z,33.4
2017-07-19T04:03:05.220Z,33.4
2017-07-19T04:04:03.425Z,33.4
2017-07-19T04:05:03.487Z,33.4
2017-07-19T04:06:06.860Z,33.5
2017-07-19T04:07:05.629Z,33.5
2017-07-19T04:08:04.594Z,33.5
2017-07-19T04:09:06.885Z,33.5
2017-07-19T04:10:03.776Z,33.5
2017-07-19T04:11:05.546Z,33.5
2017-07-19T04:12:03.861Z,33.5
2017-07-19T04:13:05.908Z,33.5
2017-07-19T04:14:07.404Z,33.5
2017-07-19T04:15:05.735Z,33.5
2017-07-19T04:16:04.099Z,33.6
2017-07-19T04:17:04.166Z,33.6
2017-07-19T04:18:07.487Z,33.6
2017-07-19T04:19:06.171Z,33.6
2017-07-19T04:20:04.696Z,33.6
2017-07-19T04:21:06.067Z,33.6
2017-07-19T04:22:04.408Z,33.6
2017-07-19T04:23:04.449Z,33.6
2017-07-19T04:24:04.492Z,33.6
2017-07-19T04:25:07.885Z,33.6
2017-07-19T04:26:04.926Z,33.6
2017-07-19T04:27:04.681Z,33.6
2017-07-19T04:28:04.761Z,33.5
2017-07-19T04:29:04.627Z,33.6
2017-07-19T04:30:07.953Z,33.6
2017-07-19T04:31:06.600Z,33.6
2017-07-19T04:32:07.152Z,33.6
2017-07-19T04:33:04.970Z,33.6
2017-07-19T04:34:04.867Z,33.6
2017-07-19T04:35:07.025Z,33.6
2017-07-19T04:36:08.331Z,33.8
2017-07-19T04:37:05.012Z,34.1
2017-07-19T04:38:05.392Z,34.3
2017-07-19T04:39:08.691Z,34.5
2017-07-19T04:40:05.241Z,34.6
2017-07-19T04:41:08.764Z,34.9
2017-07-19T04:42:08.878Z,35.1
2017-07-19T04:43:09.552Z,35.3
2017-07-19T04:44:05.902Z,35.4
2017-07-19T04:45:05.754Z,35.6
2017-07-19T04:46:05.803Z,35.8
2017-07-19T04:47:07.803Z,35.9
2017-07-19T04:48:05.921Z,36.1
2017-07-19T04:49:09.112Z,36.3
2017-07-19T04:50:09.630Z,36.5
2017-07-19T04:51:07.842Z,36.6
2017-07-19T04:52:08.112Z,36.6
2017-07-19T04:53:09.646Z,36.7
2017-07-19T04:54:08.246Z,36.7
2017-07-19T04:55:08.293Z,36.7
2017-07-19T04:56:09.985Z,36.7
2017-07-19T04:57:06.414Z,36.8
2017-07-19T04:58:09.646Z,36.8
2017-07-19T04:59:08.237Z,36.7
2017-07-19T05:00:06.575Z,36.7
2017-07-19T05:01:06.654Z,36.8
2017-07-19T05:02:10.357Z,36.8
2017-07-19T05:03:10.114Z,36.8
2017-07-19T05:04:06.645Z,36.8
2017-07-19T05:05:06.861Z,36.9
2017-07-19T05:06:10.271Z,36.9
2017-07-19T05:07:10.080Z,36.8
2017-07-19T05:08:07.272Z,36.8
2017-07-19T05:09:06.903Z,36.9
2017-07-19T05:10:07.062Z,37.1
2017-07-19T05:11:10.233Z,37.1
2017-07-19T05:12:06.953Z,37.2
2017-07-19T05:13:07.236Z,37.2
2017-07-19T05:14:10.763Z,37.1
2017-07-19T05:15:07.363Z,37.1
2017-07-19T05:16:07.197Z,37.1
2017-07-19T05:17:09.138Z,37
2017-07-19T05:18:09.376Z,37
2017-07-19T05:19:10.818Z,37
2017-07-19T05:20:07.822Z,36.9
2017-07-19T05:21:10.667Z,36.8
2017-07-19T05:22:07.658Z,36.9
2017-07-19T05:23:07.456Z,36.9
2017-07-19T05:24:11.019Z,36.9
2017-07-19T05:25:09.728Z,36.8
2017-07-19T05:26:07.943Z,36.9
2017-07-19T05:27:07.867Z,36.9
2017-07-19T05:28:09.836Z,36.9
2017-07-19T05:29:11.101Z,37
2017-07-19T05:30:09.971Z,37.1
2017-07-19T05:31:11.406Z,37.3
2017-07-19T05:32:08.288Z,37.4
2017-07-19T05:33:11.296Z,37.5
2017-07-19T05:34:10.100Z,37.5
2017-07-19T05:35:08.600Z,37.6
2017-07-19T05:36:11.646Z,37.6
2017-07-19T05:37:08.852Z,37.7
2017-07-19T05:38:10.332Z,37.8
2017-07-19T05:39:10.035Z,37.8
2017-07-19T05:40:10.207Z,37.7
2017-07-19T05:41:11.834Z,37.7
2017-07-19T05:42:11.858Z,37.6
2017-07-19T05:43:11.856Z,37.6
2017-07-19T05:44:08.935Z,37.6
2017-07-19T05:45:08.698Z,37.6
2017-07-19T05:46:10.632Z,37.7
2017-07-19T05:47:08.565Z,37.7
2017-07-19T05:48:08.829Z,37.8
2017-07-19T05:49:10.775Z,37.8
2017-07-19T05:50:09.230Z,37.8
2017-07-19T05:51:08.974Z,37.8
2017-07-19T05:52:09.556Z,37.9
2017-07-19T05:53:12.211Z,37.9
2017-07-19T05:54:12.441Z,37.9
2017-07-19T05:55:12.536Z,38
2017-07-19T05:56:12.807Z,38
2017-07-19T05:57:11.016Z,38
2017-07-19T05:58:09.375Z,38
2017-07-19T05:59:09.406Z,38.1
2017-07-19T06:00:12.547Z,38.1
2017-07-19T06:01:09.298Z,38.1
2017-07-19T06:02:09.871Z,38.1
2017-07-19T06:03:12.977Z,38.1
2017-07-19T06:04:11.385Z,38.2
2017-07-19T06:05:13.027Z,38.4
2017-07-19T06:06:13.064Z,38.5
2017-07-19T06:07:11.731Z,38.6
2017-07-19T06:08:17.564Z,38.6
2017-07-19T06:09:13.085Z,38.7
2017-07-19T06:10:11.771Z,38.9
2017-07-19T06:11:11.802Z,39
2017-07-19T06:12:10.572Z,39.2
2017-07-19T06:13:11.861Z,39.3
2017-07-19T06:14:10.421Z,39.5
2017-07-19T06:15:13.366Z,39.7
2017-07-19T06:16:12.672Z,39.9
2017-07-19T06:17:10.167Z,40
2017-07-19T06:18:10.333Z,40
2017-07-19T06:19:12.274Z,40.1
2017-07-19T06:20:12.607Z,40
2017-07-19T06:21:10.406Z,40
2017-07-19T06:22:12.361Z,40
2017-07-19T06:23:10.493Z,40
2017-07-19T06:24:12.275Z,40.1
2017-07-19T06:25:10.561Z,40
2017-07-19T06:26:10.921Z,40
2017-07-19T06:27:11.107Z,40
2017-07-19T06:28:10.637Z,40
2017-07-19T06:29:13.988Z,40.1
2017-07-19T06:30:13.541Z,40.1
2017-07-19T06:31:14.927Z,40.1
2017-07-19T06:32:14.657Z,40.2
2017-07-19T06:33:10.868Z,40.1
2017-07-19T06:34:14.144Z,40
2017-07-19T06:35:11.291Z,39.8
2017-07-19T06:36:13.068Z,39.8
2017-07-19T06:37:12.264Z,39.7
2017-07-19T06:38:13.410Z,39.7
2017-07-19T06:39:11.014Z,39.7
2017-07-19T06:40:12.337Z,39.6
2017-07-19T06:41:14.497Z,39.7
2017-07-19T06:42:11.422Z,39.7
2017-07-19T06:43:11.884Z,39.8
2017-07-19T06:44:11.673Z,39.8
2017-07-19T06:45:11.275Z,39.8
2017-07-19T06:46:13.450Z,39.9
2017-07-19T06:47:11.589Z,40
2017-07-19T06:48:13.599Z,40.1
2017-07-19T06:49:13.382Z,40.3
2017-07-19T06:50:14.367Z,40.6
2017-07-19T06:51:13.735Z,40.8
2017-07-19T06:52:16.162Z,40.9
2017-07-19T06:53:13.593Z,41
2017-07-19T06:54:14.788Z,41.1
2017-07-19T06:55:11.837Z,41
2017-07-19T06:56:12.160Z,41
2017-07-19T06:57:11.701Z,41
2017-07-19T06:58:13.868Z,41
2017-07-19T06:59:12.629Z,40.9
2017-07-19T07:00:13.750Z,40.9
2017-07-19T07:01:13.789Z,40.9
2017-07-19T07:02:13.187Z,40.9
2017-07-19T07:03:14.485Z,41
2017-07-19T07:04:15.965Z,41
2017-07-19T07:05:12.065Z,41
2017-07-19T07:06:13.970Z,41.1
2017-07-19T07:07:15.503Z,41.3
2017-07-19T07:08:12.786Z,41.4
2017-07-19T07:09:14.503Z,41.4
2017-07-19T07:10:14.599Z,41.4
2017-07-19T07:11:12.506Z,41.4
2017-07-19T07:12:12.552Z,41.5
2017-07-19T07:13:15.203Z,41.5
2017-07-19T07:14:15.056Z,41.5
2017-07-19T07:15:12.755Z,41.4
2017-07-19T07:16:12.891Z,41.5
2017-07-19T07:17:12.878Z,41.5
2017-07-19T07:18:16.219Z,41.3
2017-07-19T07:19:12.905Z,41.1
2017-07-19T07:20:16.553Z,41.1
2017-07-19T07:21:12.992Z,41.3
2017-07-19T07:22:13.626Z,41.5
2017-07-19T07:23:13.107Z,41.6
2017-07-19T07:24:14.373Z,41.6
2017-07-19T07:25:15.235Z,41.6
2017-07-19T07:26:16.676Z,41.6
2017-07-19T07:27:13.136Z,41.6
2017-07-19T07:28:17.177Z,41.5
2017-07-19T07:29:16.677Z,41.5
2017-07-19T07:30:16.606Z,41.4
2017-07-19T07:31:13.438Z,41.4
2017-07-19T07:32:16.889Z,41.3
2017-07-19T07:33:13.344Z,41.3
2017-07-19T07:34:13.602Z,41.3
2017-07-19T07:35:15.321Z,41.2
2017-07-19T07:36:15.338Z,41.3
2017-07-19T07:37:13.501Z,41.1
2017-07-19T07:38:13.862Z,41
2017-07-19T07:39:14.498Z,40.9
2017-07-19T07:40:14.577Z,40.8
2017-07-19T07:41:19.457Z,40.6
2017-07-19T07:42:15.872Z,40.6
2017-07-19T07:43:15.720Z,40.6
2017-07-19T07:44:14.972Z,40.6
2017-07-19T07:45:14.123Z,40.5
2017-07-19T07:46:13.925Z,40.3
2017-07-19T07:47:17.878Z,40.2
2017-07-19T07:48:15.871Z,39.9
2017-07-19T07:49:17.343Z,39.9
2017-07-19T07:50:17.823Z,39.8
2017-07-19T07:51:15.984Z,39.7
2017-07-19T07:52:14.405Z,39.6
2017-07-19T07:53:15.611Z,39.6
2017-07-19T07:54:18.523Z,39.5
2017-07-19T07:55:17.935Z,39.5
2017-07-19T07:56:16.599Z,39.4
2017-07-19T07:57:14.739Z,39.4
2017-07-19T07:58:18.088Z,39.3
2017-07-19T07:59:14.621Z,39.1
2017-07-19T08:00:16.780Z,38.8
2017-07-19T08:01:14.863Z,38.8
2017-07-19T08:02:15.382Z,38.5
2017-07-19T08:03:14.888Z,38.5
2017-07-19T08:04:16.212Z,38.5
2017-07-19T08:05:18.895Z,38.5
2017-07-19T08:06:15.028Z,38.4
2017-07-19T08:07:17.527Z,38.3
2017-07-19T08:08:18.735Z,38.2
2017-07-19T08:09:17.301Z,38.1
2017-07-19T08:10:19.145Z,38
2017-07-19T08:11:16.401Z,38
2017-07-19T08:12:17.510Z,37.8
2017-07-19T08:13:15.463Z,37.7
2017-07-19T08:14:19.152Z,37.5
2017-07-19T08:15:19.185Z,37.4
2017-07-19T08:16:15.672Z,37.4
2017-07-19T08:17:19.931Z,37.3
2017-07-19T08:18:15.816Z,37.2
2017-07-19T08:19:19.208Z,37.1
2017-07-19T08:20:20.300Z,37.1
2017-07-19T08:21:19.591Z,37
2017-07-19T08:22:16.213Z,37
2017-07-19T08:23:16.291Z,37
2017-07-19T08:24:18.622Z,36.9
2017-07-19T08:25:17.102Z,36.8
2017-07-19T08:26:16.432Z,36.7
2017-07-19T08:27:18.057Z,36.6
2017-07-19T08:28:16.223Z,36.6
2017-07-19T08:29:17.088Z,36.6
2017-07-19T08:30:19.730Z,36.7
2017-07-19T08:31:19.901Z,36.6
2017-07-19T08:32:16.895Z,36.5
2017-07-19T08:33:17.364Z,36.4
2017-07-19T08:34:17.944Z,36.5
2017-07-19T08:35:18.779Z,36.5
2017-07-19T08:36:16.701Z,36.4
2017-07-19T08:37:17.770Z,36.3
2017-07-19T08:38:18.033Z,36.3
2017-07-19T08:39:18.187Z,36.3
2017-07-19T08:40:19.495Z,36.4
2017-07-19T08:41:17.225Z,36.4
2017-07-19T08:42:18.990Z,36.5
2017-07-19T08:43:20.499Z,36.4
2017-07-19T08:44:17.231Z,36.4
2017-07-19T08:45:22.198Z,36.4
2017-07-19T08:46:20.959Z,36.4
2017-07-19T08:47:17.540Z,36.4
2017-07-19T08:48:17.779Z,36.4
2017-07-19T08:49:21.882Z,36.3
2017-07-19T08:50:21.083Z,36.2
2017-07-19T08:51:18.979Z,36.2
2017-07-19T08:52:18.977Z,36.2
2017-07-19T08:53:22.461Z,36.1
2017-07-19T08:54:17.792Z,36.2
2017-07-19T08:55:21.831Z,36.2
2017-07-19T08:56:22.641Z,36.2
2017-07-19T08:57:20.673Z,36.2
2017-07-19T08:58:18.106Z,36.3
2017-07-19T08:59:19.575Z,36.3
2017-07-19T09:00:21.611Z,36.4
2017-07-19T09:01:20.555Z,36.4
2017-07-19T09:02:18.289Z,36.4
2017-07-19T09:03:20.775Z,36.5
2017-07-19T09:04:19.181Z,36.5
2017-07-19T09:05:21.824Z,36.5
2017-07-19T09:06:18.471Z,36.6
2017-07-19T09:07:24.505Z,36.6
2017-07-19T09:08:19.141Z,36.6
2017-07-19T09:09:18.743Z,36.6
2017-07-19T09:10:19.146Z,36.6
2017-07-19T09:11:20.120Z,36.6
2017-07-19T09:12:19.482Z,36.6
2017-07-19T09:13:18.736Z,36.6
2017-07-19T09:14:21.641Z,36.6
2017-07-19T09:15:18.988Z,36.6
2017-07-19T09:16:20.671Z,36.6
2017-07-19T09:17:21.835Z,36.6
2017-07-19T09:18:18.859Z,36.6
2017-07-19T09:19:22.171Z,36.5
2017-07-19T09:20:18.900Z,36.5
2017-07-19T09:21:23.187Z,36.5
2017-07-19T09:22:19.291Z,36.5
2017-07-19T09:23:22.653Z,36.4
2017-07-19T09:24:21.338Z,36.5
2017-07-19T09:25:22.312Z,36.4
2017-07-19T09:26:19.811Z,36.4
2017-07-19T09:27:19.279Z,36.4
2017-07-19T09:28:19.675Z,36.3
2017-07-19T09:29:23.295Z,36.3
2017-07-19T09:30:23.427Z,36.3
2017-07-19T09:31:21.999Z,36.3
2017-07-19T09:32:20.284Z,36.2
2017-07-19T09:33:21.816Z,36.2
2017-07-19T09:34:19.806Z,36.2
2017-07-19T09:35:21.779Z,36.2
2017-07-19T09:36:19.897Z,36.3
2017-07-19T09:37:21.204Z,36.3
2017-07-19T09:38:19.799Z,36.2
2017-07-19T09:39:20.593Z,36.1
2017-07-19T09:40:20.065Z,36
2017-07-19T09:41:19.941Z,36
2017-07-19T09:42:20.048Z,35.8
2017-07-19T09:43:23.580Z,35.8
2017-07-19T09:44:21.714Z,35.9
2017-07-19T09:45:20.208Z,35.8
2017-07-19T09:46:22.210Z,35.8
2017-07-19T09:47:23.846Z,35.7
2017-07-19T09:48:24.837Z,35.6
2017-07-19T09:49:24.947Z,35.6
2017-07-19T09:50:22.521Z,35.5
2017-07-19T09:51:20.443Z,35.5
2017-07-19T09:52:21.216Z,35.5
2017-07-19T09:53:22.535Z,35.5
2017-07-19T10:03:24.428Z,35.3
2017-07-19T10:04:21.502Z,35.2
2017-07-19T10:05:21.609Z,35.2
2017-07-19T10:06:24.758Z,35.2
2017-07-19T10:07:21.561Z,35.2
2017-07-19T10:08:23.042Z,35.1
2017-07-19T10:09:22.209Z,35.2
2017-07-19T10:10:22.343Z,35.2
2017-07-19T10:11:24.902Z,35.2
2017-07-19T10:12:23.724Z,35.2
2017-07-19T10:13:21.665Z,35.3
2017-07-19T10:14:22.034Z,35.4
2017-07-19T10:15:24.372Z,35.4
2017-07-19T10:16:25.781Z,35.5
2017-07-19T10:17:26.134Z,35.5
2017-07-19T10:18:28.122Z,35.4
2017-07-19T10:19:22.314Z,35.4
2017-07-19T10:20:26.385Z,35.3
2017-07-19T10:21:23.472Z,35.3
2017-07-19T10:22:23.023Z,35.3
2017-07-19T10:23:24.680Z,35.3
2017-07-19T10:24:23.934Z,35.2
2017-07-19T10:25:24.993Z,35.2
2017-07-19T10:26:25.948Z,35.1
2017-07-19T10:27:22.402Z,35.2
2017-07-19T10:28:22.498Z,35.1
2017-07-19T10:29:26.478Z,35.1
2017-07-19T10:30:29.425Z,35.1
2017-07-19T10:31:25.856Z,35.1
2017-07-19T10:32:25.959Z,35.1
2017-07-19T10:33:23.269Z,35.1
2017-07-19T10:34:22.807Z,35.1
2017-07-19T10:35:27.511Z,35.1
2017-07-19T10:36:27.069Z,35.1
2017-07-19T10:37:22.844Z,35
2017-07-19T10:38:22.911Z,35
2017-07-19T10:39:24.393Z,34.9
2017-07-19T10:40:24.356Z,34.9
2017-07-19T10:41:27.596Z,34.8
2017-07-19T10:42:23.706Z,34.7
2017-07-19T10:43:26.207Z,34.7
2017-07-19T10:44:25.057Z,34.8
2017-07-19T10:45:23.231Z,34.8
2017-07-19T10:46:27.036Z,34.8
2017-07-19T10:47:24.120Z,34.6
2017-07-19T10:48:23.211Z,34.6
2017-07-19T10:49:26.574Z,34.5
2017-07-19T10:50:23.247Z,34.4
2017-07-19T10:51:24.149Z,34.4
2017-07-19T10:52:23.658Z,34.4
2017-07-19T10:53:27.004Z,34.4
2017-07-19T10:54:26.175Z,34.4
2017-07-19T10:55:29.667Z,34.3
2017-07-19T10:56:28.741Z,34.3
2017-07-19T10:57:23.698Z,34.4
2017-07-19T10:58:26.293Z,34.4
2017-07-19T10:59:30.427Z,34.4
2017-07-19T11:00:30.158Z,34.4
2017-07-19T11:01:27.176Z,34.5
2017-07-19T11:02:26.048Z,34.5
2017-07-19T11:03:24.578Z,34.5
2017-07-19T11:04:26.759Z,34.5
2017-07-19T11:05:25.806Z,34.4
2017-07-19T11:06:27.234Z,34.4
2017-07-19T11:07:28.170Z,34.4
2017-07-19T11:08:28.296Z,34.5
2017-07-19T11:09:25.209Z,34.6
2017-07-19T11:10:26.049Z,34.5
2017-07-19T11:11:27.511Z,34.5
2017-07-19T11:12:26.023Z,34.4
2017-07-19T11:13:24.336Z,34.4
2017-07-19T11:14:24.667Z,34.4
2017-07-19T11:15:26.016Z,34.4
2017-07-19T11:16:30.438Z,34.4
2017-07-19T11:17:27.314Z,34.4
2017-07-19T11:18:28.035Z,34.4
2017-07-19T11:19:25.106Z,34.4
2017-07-19T11:20:29.571Z,34.4
2017-07-19T11:21:28.948Z,34.3
2017-07-19T11:22:24.985Z,34.3
2017-07-19T11:23:25.110Z,34.3
2017-07-19T11:24:26.774Z,34.3
2017-07-19T11:25:29.193Z,34.2
2017-07-19T11:26:28.911Z,34.2
2017-07-19T11:27:29.058Z,34.2
2017-07-19T11:28:25.282Z,34.1
2017-07-19T11:29:27.782Z,34.1
2017-07-19T11:30:25.807Z,34.2
2017-07-19T11:31:25.430Z,34.2
2017-07-19T11:32:26.779Z,34.1
2017-07-19T11:33:28.739Z,34.1
2017-07-19T11:34:26.159Z,34.1
2017-07-19T11:35:26.050Z,34
2017-07-19T11:36:26.783Z,34
2017-07-19T11:37:28.764Z,34
2017-07-19T11:38:25.733Z,34
2017-07-19T11:39:29.541Z,34
2017-07-19T11:40:29.678Z,34
2017-07-19T11:41:26.074Z,33.9
2017-07-19T11:42:28.030Z,33.9
2017-07-19T11:43:28.156Z,33.7
2017-07-19T11:44:26.510Z,33.7
2017-07-19T11:45:26.497Z,33.7
2017-07-19T11:46:30.650Z,33.6
2017-07-19T11:47:27.350Z,33.7
2017-07-19T11:48:27.734Z,33.7
2017-07-19T11:49:30.393Z,33.7
2017-07-19T11:50:28.286Z,33.7
2017-07-19T11:51:26.819Z,33.7
2017-07-19T11:52:28.406Z,33.7
2017-07-19T11:53:27.074Z,33.7
2017-07-19T11:54:29.695Z,33.7
2017-07-19T11:55:30.546Z,33.8
2017-07-19T11:56:31.257Z,34.1
2017-07-19T11:57:26.657Z,34.1
2017-07-19T11:58:26.985Z,34.1
2017-07-19T11:59:28.728Z,34
2017-07-19T12:00:27.385Z,33.8
2017-07-19T12:01:31.023Z,33.5
2017-07-19T12:02:26.876Z,33.4
2017-07-19T12:03:29.729Z,33.4
2017-07-19T12:04:28.305Z,33.4
2017-07-19T12:05:33.924Z,33.3
2017-07-19T12:06:27.092Z,33.2
2017-07-19T12:07:28.138Z,33.1
2017-07-19T12:08:27.763Z,32.9
2017-07-19T12:09:27.382Z,32.7
2017-07-19T12:10:30.127Z,32.6
2017-07-19T12:11:29.453Z,32.5
2017-07-19T12:12:31.241Z,32.3
2017-07-19T12:13:32.084Z,32.2
2017-07-19T12:14:28.087Z,32
2017-07-19T12:15:28.198Z,31.9
2017-07-19T12:16:31.691Z,31.8
2017-07-19T12:17:28.480Z,31.7
2017-07-19T12:18:30.427Z,31.6
2017-07-19T12:19:28.452Z,31.5
2017-07-19T12:20:32.520Z,31.4
2017-07-19T12:21:28.150Z,31.4
2017-07-19T12:22:29.901Z,31.3
2017-07-19T12:23:28.231Z,31.3
2017-07-19T12:24:28.000Z,31.3
2017-07-19T12:25:28.124Z,31.3
2017-07-19T12:26:31.040Z,31.3
2017-07-19T12:27:31.817Z,31.2
2017-07-19T12:28:28.355Z,31.3
2017-07-19T12:29:30.991Z,31.3
2017-07-19T12:30:29.945Z,31.3
2017-07-19T12:31:28.469Z,31.3
2017-07-19T12:32:28.472Z,31.4
2017-07-19T12:33:28.723Z,31.4
2017-07-19T12:34:29.372Z,31.4
2017-07-19T12:35:28.575Z,31.4
2017-07-19T12:36:29.701Z,31.4
2017-07-19T12:37:32.017Z,31.3
2017-07-19T12:38:28.978Z,31.1
2017-07-19T12:39:30.182Z,31.1
2017-07-19T12:40:29.067Z,31.1
2017-07-19T12:41:32.228Z,31.1
2017-07-19T12:42:29.297Z,31
2017-07-19T12:43:29.659Z,31
2017-07-19T12:44:29.036Z,31
2017-07-19T12:45:31.212Z,31.1
2017-07-19T12:46:29.286Z,31.1
2017-07-19T12:47:29.417Z,31.2
2017-07-19T12:48:31.506Z,31.2
2017-07-19T12:49:33.298Z,31.2
2017-07-19T12:50:29.621Z,31.2
2017-07-19T12:51:29.492Z,31.1
2017-07-19T12:52:29.674Z,31
2017-07-19T12:53:29.816Z,31
2017-07-19T12:54:30.793Z,31
2017-07-19T12:55:29.854Z,31
2017-07-19T12:56:33.639Z,31
2017-07-19T12:57:35.210Z,31
2017-07-19T12:58:30.436Z,31
2017-07-19T12:59:29.898Z,31
2017-07-19T13:00:33.859Z,31
2017-07-19T13:01:32.026Z,31
2017-07-19T13:02:30.158Z,31
2017-07-19T13:03:33.598Z,31
2017-07-19T13:04:32.846Z,31.1
2017-07-19T13:05:30.245Z,31
2017-07-19T13:06:35.216Z,31
2017-07-19T13:07:32.422Z,30.9
2017-07-19T13:08:33.981Z,30.8
2017-07-19T13:09:31.335Z,30.8
2017-07-19T13:10:34.001Z,30.8
2017-07-19T13:11:30.681Z,30.8
2017-07-19T13:12:35.131Z,30.8
2017-07-19T13:13:32.396Z,30.8
2017-07-19T13:14:30.859Z,30.9
2017-07-19T13:15:30.790Z,30.9
2017-07-19T13:16:32.556Z,30.9
2017-07-19T13:17:31.703Z,31
2017-07-19T13:18:31.014Z,30.9
2017-07-19T13:19:34.214Z,30.8
2017-07-19T13:20:35.562Z,30.8
2017-07-19T13:21:33.805Z,30.7
2017-07-19T13:22:31.255Z,30.7
2017-07-19T13:23:31.331Z,30.6
2017-07-19T13:24:33.979Z,30.6
2017-07-19T13:25:34.143Z,30.6
2017-07-19T13:26:31.349Z,30.7
2017-07-19T13:27:34.979Z,30.7
2017-07-19T13:28:31.689Z,30.7
2017-07-19T13:29:31.532Z,30.7
2017-07-19T13:30:31.589Z,30.8
2017-07-19T13:31:35.691Z,30.8
2017-07-19T13:32:32.550Z,30.8